createdAt,value
2022-12-09T00:00:56.527Z,2.0563198944397993
2022-12-09T00:07:25.258Z,2.0604044732441475
2022-12-09T00:19:04.372Z,2.140012933737458
2022-12-09T00:25:33.358Z,2.0467319450250834
2022-12-09T00:32:03.207Z,1.8667335127508362
2022-12-09T00:44:12.379Z,1.7979201505016722
2022-12-09T00:52:45.475Z,1.8146419053093648
2022-12-09T01:08:24.402Z,1.8848636078595318
2022-12-09T01:21:29.419Z,1.8060468488712373
2022-12-09T01:27:58.057Z,1.7850131950250834
2022-12-09T01:34:25.722Z,1.6084108486622073
2022-12-09T01:40:52.573Z,1.4116070495401338
2022-12-09T01:52:46.729Z,1.1932555131688964
2022-12-09T01:59:25.382Z,1.083395824623746
2022-12-09T02:12:14.778Z,0.9165382002508361
2022-12-09T02:32:34.339Z,0.7639331626254181
2022-12-09T02:39:16.997Z,0.8372635346989966
2022-12-09T02:53:32.337Z,0.889358408235786
2022-12-09T03:03:20.787Z,0.7797325721153846
2022-12-09T03:10:02.355Z,0.7685481553093646
2022-12-09T03:25:15.941Z,0.9333932117474916
2022-12-09T03:35:40.268Z,1.1066295202759198
2022-12-09T03:42:18.535Z,0.9817660430602005
2022-12-09T03:54:34.003Z,1.1421626776755855
2022-12-09T04:01:09.122Z,1.12279995819398
2022-12-09T04:07:48.706Z,1.1939283288043478
2022-12-09T04:14:27.312Z,1.1913846937709032
2022-12-09T04:21:07.367Z,1.2413272104933109
2022-12-09T04:27:48.011Z,1.2333167851170568
2022-12-09T04:34:26.509Z,1.2195475804765885
2022-12-09T04:41:07.821Z,1.1457886966973243
2022-12-09T04:47:48.613Z,0.8908882472826086
2022-12-09T04:54:29.772Z,1.0424448683110368
2022-12-09T05:01:08.482Z,0.9755571958612038
2022-12-09T05:29:20.836Z,0.8881414611204013
2022-12-09T05:40:30.357Z,0.8047443300585284
2022-12-09T05:47:04.730Z,0.8177224864130433
2022-12-09T06:17:27.747Z,0.27510059573578594
2022-12-09T06:24:03.824Z,0.2573990123327759
2022-12-09T06:30:32.434Z,0.22944254285117052
2022-12-09T06:39:42.492Z,0.03421496132943144
2022-12-09T06:46:10.508Z,-0.054537259615384616
2022-12-09T06:52:40.933Z,0.18152435200668895
2022-12-09T06:59:09.455Z,0.23844651442307693
2022-12-09T07:09:05.553Z,0.14691027382943145
2022-12-09T07:20:47.189Z,0.05064995296822742
2022-12-09T07:28:58.387Z,-0.03772274770066889
2022-12-09T07:35:28.441Z,0.051906093227424746
2022-12-09T07:44:44.959Z,0.1784777382943144
2022-12-09T07:52:52.540Z,0.10472734636287626
2022-12-09T07:59:21.712Z,0.0484636287625418
2022-12-09T08:05:50.172Z,0.06295529368729097
2022-12-09T08:16:38.309Z,0.2360707566889632
2022-12-09T08:23:33.582Z,0.37221010137959865
2022-12-09T08:30:03.437Z,0.7639899926839465
2022-12-09T08:36:33.125Z,0.7260092234531772
2022-12-09T08:45:58.131Z,0.9106376724498328
2022-12-09T08:52:27.592Z,0.9917524561036791
2022-12-09T08:58:57.262Z,1.0189564172240804
2022-12-09T09:05:28.168Z,0.8536887280518395
2022-12-09T09:11:58.600Z,0.7516924905936455
2022-12-09T09:26:22.121Z,1.0223008988294315
2022-12-09T09:32:51.332Z,0.9939453125000002
2022-12-09T09:39:21.746Z,1.0243245714882943
2022-12-09T09:45:51.413Z,1.1024136444397992
2022-12-09T09:52:21.165Z,1.1073160535117057
2022-12-09T09:58:49.653Z,1.1730442621237458
2022-12-09T10:05:19.466Z,1.1187904995819398
2022-12-09T10:11:49.281Z,1.3837609740802677
2022-12-09T10:18:32.242Z,1.0249823630852843
2022-12-09T10:26:05.050Z,1.4203020484949833
2022-12-09T10:34:27.441Z,1.2011104724080268
2022-12-09T10:42:04.738Z,0.9698774561036788
2022-12-09T11:01:08.814Z,1.0417302466555183
2022-12-09T11:11:25.578Z,1.0336407817725752
2022-12-09T11:18:37.167Z,1.4098812447742477
2022-12-09T11:25:07.122Z,1.2074244878762543
2022-12-09T11:31:36.419Z,1.266901390050167
2022-12-09T11:38:05.606Z,1.370522183319398
2022-12-09T11:44:35.141Z,1.1883727006688964
2022-12-09T11:51:04.907Z,1.2887502612876256
2022-12-09T12:07:01.871Z,1.505053955894649
2022-12-09T12:13:32.250Z,1.6311271948160535
2022-12-09T12:20:38.905Z,1.3691661005434783
2022-12-09T12:29:17.830Z,1.5206345369983276
2022-12-09T12:35:49.209Z,1.4127201348244147
2022-12-09T12:43:58.214Z,1.549726954431438
2022-12-09T12:50:28.732Z,1.5567686559364549
2022-12-09T12:56:58.481Z,1.4828797815635453
2022-12-09T13:21:30.832Z,1.5347832619147155
2022-12-09T13:31:44.582Z,1.3531432901337792
2022-12-09T13:43:40.889Z,1.5173521112040134
2022-12-09T13:53:58.514Z,1.826052335911371
2022-12-09T14:00:29.621Z,1.836138038252508
2022-12-09T14:07:09.650Z,1.7472192464464882
2022-12-09T14:14:45.268Z,1.797737902382943
2022-12-09T14:21:17.328Z,1.6362275292642139
2022-12-09T14:32:46.894Z,1.5679008152173912
2022-12-09T14:39:24.401Z,1.5431333612040135
2022-12-09T14:54:54.494Z,1.3153160273829432
2022-12-09T15:01:25.437Z,1.1988934469063546
2022-12-09T15:07:54.892Z,1.3129063022575251
2022-12-09T15:14:24.501Z,1.2165506114130433
2022-12-09T15:22:05.491Z,1.2604547711120402
2022-12-09T15:42:27.294Z,1.0820390886287625
2022-12-09T15:55:49.789Z,1.148517845944816
2022-12-09T16:02:25.237Z,1.0335591293896322
2022-12-09T16:08:59.417Z,1.052615489130435
2022-12-09T16:17:52.658Z,0.9443770903010033
2022-12-09T16:31:54.362Z,0.8823265050167225
2022-12-09T16:39:05.550Z,0.7839425689799332
2022-12-09T16:45:39.294Z,0.9345605142140468
2022-12-09T16:52:10.302Z,0.8676212374581941
2022-12-09T16:58:40.362Z,0.9006662834448161
2022-12-09T17:08:31.079Z,0.6992781929347827
2022-12-09T17:15:03.088Z,0.6571736517558529
2022-12-09T17:21:34.371Z,0.5215248745819399
2022-12-09T17:28:05.830Z,0.8527559312290971
2022-12-09T17:34:37.943Z,0.6289003710284281
2022-12-09T17:41:10.173Z,0.7624588471989967
2022-12-09T17:48:45.999Z,0.5125202497909699
2022-12-09T18:03:39.292Z,0.7384458612040133
2022-12-09T18:10:10.018Z,0.69744068770903
2022-12-09T18:20:55.831Z,0.7468527905518394
2022-12-09T18:32:41.399Z,0.48647640572742473
2022-12-09T18:39:11.854Z,0.26681908444816055
2022-12-09T18:45:42.129Z,0.19004820756688962
2022-12-09T18:52:11.843Z,0.38691079640468234
2022-12-09T18:59:04.104Z,0.33138064381270904
2022-12-09T19:10:57.479Z,0.5015076295986622
2022-12-09T19:19:12.193Z,0.3362980769230769
2022-12-09T19:25:48.201Z,0.2944117109113712
2022-12-09T19:32:52.870Z,0.5405119931020067
2022-12-09T19:51:51.002Z,0.4324316732859532
2022-12-09T19:58:21.963Z,0.7375222094481605
2022-12-09T20:04:51.282Z,0.8429641774665553
2022-12-09T20:26:18.284Z,0.6361955215301003
2022-12-09T20:33:22.697Z,0.8030355089882942
2022-12-09T20:48:37.266Z,0.7795405257107023
2022-12-09T20:57:59.288Z,0.9297946279264213
2022-12-09T21:11:03.518Z,0.8681777801003343
2022-12-09T21:17:32.711Z,0.9728979410535117
2022-12-09T21:24:01.653Z,0.9473067778010035
2022-12-09T21:30:30.248Z,0.8999281459030101
2022-12-09T21:43:16.891Z,0.7752560618729096
2022-12-09T21:54:00.659Z,0.8610282974498328
2022-12-09T22:00:28.514Z,0.8444672345317726
2022-12-09T22:07:24.446Z,0.9654571227006691
2022-12-09T22:13:57.245Z,1.0044987196906354
2022-12-09T22:21:00.563Z,1.0260634406354514
2022-12-09T22:27:43.694Z,1.0644139318561874
2022-12-09T22:34:11.782Z,1.0730200930183946
2022-12-09T22:45:30.478Z,1.0498817673494985
2022-12-09T22:52:23.587Z,0.7714295045986622
2022-12-09T22:58:54.935Z,0.8408647313963211
2022-12-09T23:05:29.118Z,0.876381558319398
2022-12-09T23:12:34.492Z,0.8610309103260869
2022-12-09T23:19:05.376Z,0.8254370035535117
2022-12-09T23:30:38.158Z,0.42787742997491635
2022-12-09T23:37:07.541Z,0.5121263586956523
2022-12-09T23:46:41.680Z,0.8704170150501672
2022-12-09T23:56:48.945Z,0.6398992736204013
